Time;durP1;ratioP1;P1;durP2;ratioP2;P2;SDS_P1;SDS_P2;PMS_P1;PMS_P2;Temp;Humidity;BMP_temperature;BMP_pressure;BME280_temperature;BME280_humidity;BME280_pressure;Samples;Min_cycle;Max_cycle;Signal;HPM_P1;HPM_P2
2023/03/01 00:01:27;;;;;;;14.17;9.47;;;-2.20;1.00;;;;;;5001954;28;20227;-64
2023/03/01 00:03:54;;;;;;;14.73;10.10;;;-2.20;1.00;;;;;;5017326;28;20267;-63
2023/03/01 00:06:22;;;;;;;16.77;10.70;;;-2.30;1.00;;;;;;5001271;28;20547;-65
2023/03/01 00:08:49;;;;;;;19.93;10.37;;;-2.30;1.00;;;;;;5016526;28;20193;-64
2023/03/01 00:11:28;;;;;;;14.37;10.03;;;-2.30;1.00;;;;;;4998916;28;20212;-65
2023/03/01 00:13:58;;;;;;;12.07;8.33;;;-2.40;1.00;;;;;;4982780;28;20251;-65
2023/03/01 00:16:28;;;;;;;14.83;8.97;;;-2.40;1.00;;;;;;4999183;28;20209;-63
2023/03/01 00:18:56;;;;;;;12.17;9.20;;;-2.30;1.00;;;;;;4982479;28;20210;-63
2023/03/01 00:21:25;;;;;;;12.23;8.90;;;-2.30;1.00;;;;;;5016861;28;20311;-62
2023/03/01 00:23:52;;;;;;;12.60;9.13;;;-2.40;1.00;;;;;;5015433;28;20299;-63
2023/03/01 00:26:21;;;;;;;12.67;9.20;;;-2.50;1.00;;;;;;5018787;28;20193;-65
2023/03/01 00:28:48;;;;;;;11.70;8.10;;;-2.50;1.00;;;;;;5017589;28;20222;-65
2023/03/01 00:31:18;;;;;;;14.57;8.70;;;-2.50;1.00;;;;;;4991654;28;20715;-64
2023/03/01 00:33:45;;;;;;;12.20;8.70;;;-2.60;1.00;;;;;;5016847;28;20201;-65
2023/03/01 00:36:15;;;;;;;14.27;9.63;;;-2.60;1.00;;;;;;4997919;28;20248;-65
2023/03/01 00:38:44;;;;;;;14.47;9.50;;;-2.70;1.00;;;;;;5016672;28;20205;-65
2023/03/01 00:41:14;;;;;;;19.03;12.03;;;-2.80;1.00;;;;;;5017365;28;20250;-64
2023/03/01 00:43:41;;;;;;;16.37;11.13;;;-2.70;1.00;;;;;;5015656;28;20252;-64
2023/03/01 00:46:14;;;;;;;28.83;17.17;;;-2.70;1.00;;;;;;5015141;28;20197;-64
2023/03/01 00:48:41;;;;;;;19.27;12.60;;;-2.60;1.00;;;;;;5013663;28;20617;-63
2023/03/01 00:51:24;;;;;;;20.17;11.47;;;-2.60;1.00;;;;;;5015022;28;20296;-65
2023/03/01 00:53:53;;;;;;;16.30;10.67;;;-2.60;1.00;;;;;;5015185;28;20616;-65
2023/03/01 00:56:20;;;;;;;15.73;9.87;;;-2.80;1.00;;;;;;4984460;28;20326;-65
2023/03/01 00:58:47;;;;;;;14.03;10.03;;;-2.80;1.00;;;;;;5017222;28;20197;-64
2023/03/01 01:01:21;;;;;;;12.33;8.80;;;-2.70;1.00;;;;;;4981929;28;20590;-64
2023/03/01 01:04:07;;;;;;;13.07;9.30;;;-2.70;1.00;;;;;;4978670;28;20704;-65
2023/03/01 01:06:37;;;;;;;14.03;9.30;;;-2.80;1.00;;;;;;4996400;28;20207;-66
2023/03/01 01:09:06;;;;;;;16.40;9.47;;;-2.80;1.00;;;;;;4995946;28;20655;-66
2023/03/01 01:11:37;;;;;;;16.00;9.93;;;-2.80;1.00;;;;;;4996236;28;20197;-65
2023/03/01 01:14:04;;;;;;;12.50;9.60;;;-2.80;1.00;;;;;;4995029;28;20247;-65
2023/03/01 01:16:32;;;;;;;14.13;10.77;;;-2.90;1.00;;;;;;4979452;28;20256;-65
2023/03/01 01:19:00;;;;;;;18.87;10.27;;;-2.90;1.00;;;;;;5003063;28;20205;-65
2023/03/01 01:21:27;;;;;;;15.37;10.00;;;-3.00;1.00;;;;;;4980802;28;20656;-66
2023/03/01 01:23:56;;;;;;;15.67;10.10;;;-3.10;1.00;;;;;;4980271;28;20745;-65
2023/03/01 01:26:28;;;;;;;15.83;9.90;;;-3.00;1.00;;;;;;4997373;28;20715;-65
2023/03/01 01:28:56;;;;;;;17.53;10.10;;;-3.00;1.00;;;;;;4979462;28;20287;-64
2023/03/01 01:31:25;;;;;;;15.83;10.33;;;-3.10;1.00;;;;;;4998158;28;20780;-65
2023/03/01 01:33:52;;;;;;;14.27;9.47;;;-3.20;1.00;;;;;;4971218;28;20251;-65
2023/03/01 01:36:20;;;;;;;12.13;9.00;;;-3.30;1.00;;;;;;4998767;28;20224;-65
2023/03/01 01:38:47;;;;;;;13.10;9.30;;;-3.10;1.00;;;;;;4995947;28;20311;-66
2023/03/01 01:41:16;;;;;;;10.90;8.77;;;-3.00;1.00;;;;;;4994778;28;20205;-65
2023/03/01 01:44:21;;;;;;;12.80;8.90;;;-3.00;1.00;;;;;;4996050;28;20307;-65
2023/03/01 01:47:00;;;;;;;14.77;8.93;;;-3.00;1.00;;;;;;4996262;28;20257;-65
2023/03/01 01:49:40;;;;;;;14.10;10.50;;;-3.10;1.00;;;;;;4995514;28;20545;-66
2023/03/01 01:52:10;;;;;;;15.20;10.10;;;-3.20;1.00;;;;;;4997641;28;20196;-66
2023/03/01 01:54:39;;;;;;;19.43;11.93;;;-3.20;1.00;;;;;;4996822;28;20486;-65
2023/03/01 01:57:13;;;;;;;14.63;11.07;;;-3.30;1.00;;;;;;5007950;28;20240;-66
2023/03/01 01:59:43;;;;;;;12.40;9.67;;;-3.30;1.00;;;;;;4999822;28;20197;-65
2023/03/01 02:02:11;;;;;;;14.30;10.50;;;-3.40;1.00;;;;;;4996863;28;20708;-60
2023/03/01 02:04:39;;;;;;;14.83;10.47;;;-3.50;1.00;;;;;;5006749;28;20327;-60
2023/03/01 02:07:18;;;;;;;14.13;10.17;;;-3.50;1.00;;;;;;5013214;28;20223;-60
2023/03/01 02:09:52;;;;;;;19.27;10.77;;;-3.50;1.00;;;;;;4995953;28;20200;-59
2023/03/01 02:12:23;;;;;;;15.70;10.47;;;-3.60;1.00;;;;;;4996815;28;20201;-60
2023/03/01 02:14:51;;;;;;;14.53;9.50;;;-3.60;1.00;;;;;;4996375;28;20212;-60
2023/03/01 02:17:19;;;;;;;15.93;10.27;;;-3.70;1.00;;;;;;4996459;28;20211;-60
2023/03/01 02:19:48;;;;;;;15.70;10.27;;;-3.70;1.00;;;;;;5013109;28;20220;-60
2023/03/01 02:22:25;;;;;;;14.30;9.33;;;-3.70;1.00;;;;;;4981523;28;20291;-61
2023/03/01 02:24:52;;;;;;;13.17;8.73;;;-3.70;1.00;;;;;;4988114;28;20216;-60
2023/03/01 02:27:24;;;;;;;13.53;9.67;;;-3.60;1.00;;;;;;4977363;28;20229;-60
2023/03/01 02:29:51;;;;;;;13.70;8.73;;;-3.50;1.00;;;;;;5001098;28;20278;-59
2023/03/01 02:32:24;;;;;;;15.00;9.17;;;-3.50;1.00;;;;;;5000393;28;20219;-60
2023/03/01 02:34:56;;;;;;;13.17;9.43;;;-3.60;1.00;;;;;;4982046;28;20220;-59
2023/03/01 02:37:26;;;;;;;15.60;10.20;;;-3.70;1.00;;;;;;5014278;28;20228;-59
2023/03/01 02:40:02;;;;;;;13.27;8.70;;;-3.70;1.00;;;;;;5018356;28;20998;-61
2023/03/01 02:42:39;;;;;;;15.70;9.13;;;-3.80;1.00;;;;;;4983553;28;20727;-59
2023/03/01 02:45:06;;;;;;;11.63;8.83;;;-3.60;1.00;;;;;;4983555;28;20220;-59
2023/03/01 02:47:33;;;;;;;12.70;9.47;;;-3.70;1.00;;;;;;5001999;28;20485;-58
2023/03/01 02:50:00;;;;;;;14.37;8.20;;;-3.80;1.00;;;;;;4998089;28;20224;-59
2023/03/01 02:52:53;;;;;;;13.27;9.63;;;-3.80;1.00;;;;;;5013544;28;20699;-60
2023/03/01 02:55:20;;;;;;;13.30;9.10;;;-3.80;1.00;;;;;;4974028;28;20296;-59
2023/03/01 02:57:52;;;;;;;13.83;9.40;;;-3.80;1.00;;;;;;5014308;28;20625;-60
2023/03/01 03:00:24;;;;;;;11.60;8.50;;;-3.80;1.00;;;;;;4999321;28;20540;-59
2023/03/01 03:02:54;;;;;;;13.73;8.97;;;-3.80;1.00;;;;;;4998178;28;20211;-58
2023/03/01 03:05:27;;;;;;;14.30;9.40;;;-3.80;1.00;;;;;;5017908;28;20220;-59
2023/03/01 03:07:57;;;;;;;15.10;9.67;;;-3.80;1.00;;;;;;4973187;28;20236;-60
2023/03/01 03:10:28;;;;;;;14.10;9.07;;;-3.90;1.00;;;;;;4997209;28;20762;-60
2023/03/01 03:13:02;;;;;;;14.83;8.80;;;-4.00;1.00;;;;;;5016272;28;20188;-60
2023/03/01 03:15:30;;;;;;;13.77;9.27;;;-4.00;1.00;;;;;;5017845;28;20188;-60
2023/03/01 03:17:58;;;;;;;13.20;9.77;;;-3.90;1.00;;;;;;4999327;28;20287;-61
2023/03/01 03:20:27;;;;;;;13.67;9.47;;;-4.00;1.00;;;;;;5017577;28;20201;-60
2023/03/01 03:22:56;;;;;;;12.77;8.60;;;-4.00;1.00;;;;;;5016603;28;20522;-63
2023/03/01 03:25:24;;;;;;;14.43;8.77;;;-4.10;1.00;;;;;;4999787;28;20261;-60
2023/03/01 03:27:59;;;;;;;12.70;9.10;;;-4.00;1.00;;;;;;5000337;28;20189;-59
2023/03/01 03:30:29;;;;;;;13.30;9.03;;;-4.00;1.00;;;;;;5016239;28;20217;-62
2023/03/01 03:32:57;;;;;;;13.40;8.90;;;-4.10;1.00;;;;;;4999983;28;20533;-62
2023/03/01 03:35:29;;;;;;;14.90;8.93;;;-4.10;1.00;;;;;;5017341;28;20200;-61
2023/03/01 03:38:01;;;;;;;17.90;9.97;;;-4.20;1.00;;;;;;4999844;28;20573;-61
2023/03/01 03:40:40;;;;;;;15.37;10.00;;;-4.20;1.00;;;;;;5015298;28;20205;-62
2023/03/01 03:43:15;;;;;;;13.73;9.77;;;-4.20;1.00;;;;;;5016287;28;20192;-61
2023/03/01 03:45:45;;;;;;;13.83;9.67;;;-4.30;1.00;;;;;;5018077;28;20232;-59
2023/03/01 03:48:12;;;;;;;15.73;9.93;;;-4.30;1.00;;;;;;5018908;28;20193;-59
2023/03/01 03:50:40;;;;;;;15.60;10.17;;;-4.30;1.00;;;;;;4984686;28;20240;-59
2023/03/01 03:53:10;;;;;;;16.70;10.73;;;-4.40;1.00;;;;;;5017401;28;20209;-58
2023/03/01 03:55:38;;;;;;;18.17;12.70;;;-4.40;1.00;;;;;;4984467;28;20635;-58
2023/03/01 03:58:08;;;;;;;23.20;14.40;;;-4.50;1.00;;;;;;5000444;28;20204;-64
2023/03/01 04:00:41;;;;;;;28.40;16.97;;;-4.50;1.00;;;;;;5002040;28;20227;-58
2023/03/01 04:03:09;;;;;;;20.93;15.30;;;-4.50;1.00;;;;;;5019292;28;20306;-57
2023/03/01 04:05:37;;;;;;;24.53;15.80;;;-4.50;1.00;;;;;;5016612;28;20708;-60
2023/03/01 04:08:08;;;;;;;21.30;14.03;;;-4.50;1.00;;;;;;5017240;28;20201;-59
2023/03/01 04:10:37;;;;;;;23.43;15.13;;;-4.50;1.00;;;;;;4998864;28;20196;-60
2023/03/01 04:13:06;;;;;;;23.80;14.60;;;-4.50;1.00;;;;;;4999712;28;20193;-60
2023/03/01 04:15:34;;;;;;;24.13;14.43;;;-4.50;1.00;;;;;;5017363;28;20275;-58
2023/03/01 04:18:02;;;;;;;18.03;12.67;;;-4.50;1.00;;;;;;5018801;28;20200;-60
2023/03/01 04:20:33;;;;;;;17.23;12.67;;;-4.40;1.00;;;;;;5017636;28;20596;-59
2023/03/01 04:23:15;;;;;;;17.27;11.93;;;-4.40;1.00;;;;;;4984992;28;20216;-60
2023/03/01 04:25:46;;;;;;;17.37;11.73;;;-4.40;1.00;;;;;;5013137;28;20345;-60
2023/03/01 04:28:13;;;;;;;18.23;11.03;;;-4.30;1.00;;;;;;5018311;28;20193;-59
2023/03/01 04:30:41;;;;;;;17.67;10.53;;;-4.20;1.00;;;;;;5017213;28;20189;-59
2023/03/01 04:33:09;;;;;;;17.20;11.53;;;-4.20;1.00;;;;;;5017332;28;20203;-60
2023/03/01 04:35:37;;;;;;;16.03;11.53;;;-4.10;1.00;;;;;;5016449;28;20232;-58
2023/03/01 04:38:05;;;;;;;16.40;10.77;;;-4.00;1.00;;;;;;5017147;28;20219;-59
2023/03/01 04:40:32;;;;;;;17.27;11.50;;;-4.10;1.00;;;;;;5007317;28;20214;-59
2023/03/01 04:42:59;;;;;;;13.77;10.03;;;-4.20;1.00;;;;;;5017351;28;20686;-58
2023/03/01 04:45:27;;;;;;;15.27;10.90;;;-4.30;1.00;;;;;;5017577;28;20297;-59
2023/03/01 04:47:54;;;;;;;18.03;11.83;;;-4.40;1.00;;;;;;5018030;28;20254;-59
2023/03/01 04:50:23;;;;;;;19.97;12.97;;;-4.30;1.00;;;;;;5016919;28;20802;-60
2023/03/01 04:52:50;;;;;;;18.60;12.63;;;-4.40;1.00;;;;;;5016379;28;20201;-58
2023/03/01 04:55:17;;;;;;;21.03;13.40;;;-4.50;1.00;;;;;;4998419;28;20232;-59
2023/03/01 04:57:44;;;;;;;20.93;13.10;;;-4.50;1.00;;;;;;4999943;28;20545;-58
2023/03/01 05:00:19;;;;;;;20.80;12.43;;;-4.60;1.00;;;;;;5017762;28;20355;-60
2023/03/01 05:02:53;;;;;;;26.37;14.30;;;-4.60;1.00;;;;;;4999066;28;20718;-59
2023/03/01 05:05:25;;;;;;;19.53;13.30;;;-4.70;1.00;;;;;;5017128;28;20237;-60
2023/03/01 05:07:58;;;;;;;20.77;13.00;;;-4.70;1.00;;;;;;4999342;28;20282;-60
2023/03/01 05:10:28;;;;;;;17.80;11.03;;;-4.70;1.00;;;;;;5016742;28;20223;-60
2023/03/01 05:12:57;;;;;;;17.60;10.70;;;-4.70;1.00;;;;;;5016761;28;20283;-60
2023/03/01 05:15:25;;;;;;;16.50;10.30;;;-4.60;1.00;;;;;;4983240;28;20254;-61
2023/03/01 05:17:54;;;;;;;17.10;11.30;;;-4.50;1.00;;;;;;5016393;28;20197;-60
2023/03/01 05:20:24;;;;;;;16.93;11.03;;;-4.40;1.00;;;;;;4998149;28;20287;-58
2023/03/01 05:22:59;;;;;;;16.23;11.13;;;-4.60;1.00;;;;;;4999134;28;20264;-61
2023/03/01 05:25:26;;;;;;;18.97;11.77;;;-4.60;1.00;;;;;;4997578;28;20213;-59
2023/03/01 05:27:53;;;;;;;20.73;11.63;;;-4.70;1.00;;;;;;4982437;28;20569;-59
2023/03/01 05:30:21;;;;;;;18.33;11.97;;;-4.70;1.00;;;;;;5011960;28;20193;-58
2023/03/01 05:32:55;;;;;;;17.90;11.63;;;-4.80;1.00;;;;;;5016820;28;20272;-58
2023/03/01 05:35:22;;;;;;;15.57;11.30;;;-4.80;1.00;;;;;;5015796;28;20200;-60
2023/03/01 05:37:51;;;;;;;19.87;12.63;;;-4.90;1.00;;;;;;5016576;28;20239;-60
2023/03/01 05:40:23;;;;;;;22.77;11.37;;;-4.90;1.00;;;;;;5016689;28;20251;-61
2023/03/01 05:42:54;;;;;;;14.37;10.20;;;-4.60;51.00;;;;;;4984284;28;20283;-61
2023/03/01 05:45:22;;;;;;;13.63;9.83;;;-4.60;30.20;;;;;;4982934;28;20919;-60
2023/03/01 05:47:50;;;;;;;18.00;11.03;;;-4.70;19.30;;;;;;5015807;28;20204;-60
2023/03/01 05:50:21;;;;;;;22.70;11.43;;;-4.80;30.70;;;;;;5014333;28;20287;-61
2023/03/01 05:53:00;;;;;;;15.23;10.37;;;-4.90;38.70;;;;;;5016160;28;20902;-60
2023/03/01 05:55:29;;;;;;;16.10;10.97;;;-4.90;38.40;;;;;;5015778;28;20202;-60
2023/03/01 05:57:58;;;;;;;19.23;11.20;;;-5.00;46.50;;;;;;5017416;28;20687;-60
2023/03/01 06:00:25;;;;;;;20.87;11.33;;;-5.00;50.80;;;;;;5015524;28;20235;-59
2023/03/01 06:02:54;;;;;;;17.63;11.17;;;-5.00;73.50;;;;;;5006450;28;20271;-59
2023/03/01 06:05:22;;;;;;;21.10;12.67;;;-4.90;62.10;;;;;;4985683;28;20241;-60
2023/03/01 06:07:50;;;;;;;19.77;11.73;;;-4.90;64.30;;;;;;5019732;28;20241;-60
2023/03/01 06:10:19;;;;;;;17.83;11.87;;;-4.90;59.30;;;;;;5020247;28;20251;-60
2023/03/01 06:12:47;;;;;;;17.27;11.30;;;-4.70;99.90;;;;;;5020317;28;20224;-60
2023/03/01 06:15:15;;;;;;;18.13;11.67;;;-4.70;66.00;;;;;;5020044;28;20300;-60
2023/03/01 06:17:44;;;;;;;18.43;11.33;;;-4.80;49.50;;;;;;4986657;28;20282;-61
2023/03/01 06:20:19;;;;;;;19.93;12.40;;;-4.70;71.80;;;;;;5010375;28;20189;-62
2023/03/01 06:22:46;;;;;;;17.77;11.50;;;-4.70;59.10;;;;;;5002397;28;20232;-61
2023/03/01 06:25:17;;;;;;;19.87;11.70;;;-4.60;50.30;;;;;;5019327;28;20631;-61
2023/03/01 06:27:44;;;;;;;16.97;11.77;;;-4.50;55.50;;;;;;5002900;28;20244;-59
2023/03/01 06:30:13;;;;;;;20.50;13.20;;;-4.00;41.00;;;;;;4987173;28;20299;-59
2023/03/01 06:32:44;;;;;;;20.27;12.40;;;-3.50;1.00;;;;;;5000962;28;20680;-59
2023/03/01 06:35:14;;;;;;;20.30;13.30;;;-3.20;1.00;;;;;;5018864;28;20197;-60
2023/03/01 06:37:41;;;;;;;20.93;13.67;;;-2.20;1.00;;;;;;5018071;28;20201;-59
2023/03/01 06:40:11;;;;;;;15.90;11.30;;;-0.90;1.00;;;;;;5019741;28;20197;-60
2023/03/01 06:42:40;;;;;;;15.73;9.57;;;-0.20;1.00;;;;;;5019737;28;20288;-58
2023/03/01 06:45:09;;;;;;;15.17;9.00;;;-0.40;1.00;;;;;;5020887;28;20256;-61
2023/03/01 06:47:36;;;;;;;12.57;9.40;;;-0.60;1.00;;;;;;5019026;28;21104;-58
2023/03/01 06:50:03;;;;;;;11.47;9.30;;;0.60;1.00;;;;;;5019855;28;20252;-62
2023/03/01 06:52:30;;;;;;;13.17;9.07;;;2.30;1.00;;;;;;5019643;28;20228;-60
2023/03/01 06:54:57;;;;;;;15.63;11.03;;;3.50;1.00;;;;;;5001823;28;20270;-58
2023/03/01 06:57:24;;;;;;;21.10;10.23;;;4.00;1.00;;;;;;5018131;28;20240;-60
2023/03/01 06:59:51;;;;;;;13.63;8.73;;;4.80;1.00;;;;;;5020616;28;20678;-59
2023/03/01 07:02:19;;;;;;;14.30;8.83;;;5.70;1.00;;;;;;4993539;28;20568;-61
2023/03/01 07:04:46;;;;;;;12.47;8.37;;;5.30;1.00;;;;;;5001094;28;20639;-60
2023/03/01 07:07:13;;;;;;;13.97;8.53;;;4.30;1.00;;;;;;5019596;28;20362;-60
2023/03/01 07:09:40;;;;;;;13.23;9.23;;;3.00;1.00;;;;;;5001149;28;20315;-60
2023/03/01 07:12:07;;;;;;;13.23;8.90;;;1.90;1.00;;;;;;5019698;28;20680;-61
2023/03/01 07:14:34;;;;;;;11.90;8.50;;;0.90;1.00;;;;;;5008380;28;20252;-61
2023/03/01 07:17:01;;;;;;;10.60;8.53;;;0.50;1.00;;;;;;5001424;28;20683;-62
2023/03/01 07:19:29;;;;;;;11.17;8.50;;;0.20;1.00;;;;;;5019007;28;20668;-61
2023/03/01 07:21:56;;;;;;;11.07;9.00;;;0.10;1.00;;;;;;4979836;28;20697;-60
2023/03/01 07:24:23;;;;;;;12.43;8.53;;;-0.10;1.00;;;;;;5017663;28;20579;-61
2023/03/01 07:26:51;;;;;;;13.97;8.77;;;-0.30;1.00;;;;;;4983221;28;20295;-61
2023/03/01 07:29:18;;;;;;;9.47;8.43;;;-0.40;1.00;;;;;;5019242;28;20601;-59
2023/03/01 07:31:45;;;;;;;12.33;9.50;;;-0.50;1.00;;;;;;5019518;28;20208;-59
2023/03/01 07:34:12;;;;;;;12.33;8.60;;;-0.50;1.00;;;;;;5009212;28;20652;-59
2023/03/01 07:36:42;;;;;;;15.10;10.10;;;-0.50;1.00;;;;;;5009265;28;20316;-60
2023/03/01 07:39:10;;;;;;;15.27;11.20;;;-0.50;1.00;;;;;;5019258;28;20315;-60
2023/03/01 07:41:37;;;;;;;19.07;11.83;;;-0.80;1.00;;;;;;5017832;28;20212;-60
2023/03/01 07:44:04;;;;;;;14.30;10.37;;;-0.80;1.00;;;;;;5019165;28;20196;-60
2023/03/01 07:46:32;;;;;;;14.03;9.33;;;-0.70;1.00;;;;;;5019560;28;20224;-60
2023/03/01 07:48:59;;;;;;;13.00;9.03;;;-0.60;1.00;;;;;;4976023;28;20193;-61
2023/03/01 07:51:26;;;;;;;15.70;10.10;;;-0.60;1.00;;;;;;5016701;28;20201;-59
2023/03/01 07:53:53;;;;;;;19.83;11.87;;;-0.50;1.00;;;;;;4991441;28;20250;-60
2023/03/01 07:56:21;;;;;;;12.47;9.30;;;-0.40;1.00;;;;;;5006770;28;20258;-59
2023/03/01 07:58:49;;;;;;;14.93;9.07;;;-0.40;1.00;;;;;;5017289;28;20204;-61
2023/03/01 08:01:19;;;;;;;12.73;8.70;;;-0.20;1.00;;;;;;5014942;28;20711;-60
2023/03/01 08:03:46;;;;;;;11.60;8.77;;;-0.20;1.00;;;;;;5017462;28;20275;-60
2023/03/01 08:06:15;;;;;;;13.63;8.87;;;-0.10;1.00;;;;;;5003327;28;20216;-62
2023/03/01 08:08:43;;;;;;;12.40;8.13;;;0.10;1.00;;;;;;4999312;28;20659;-61
2023/03/01 08:11:14;;;;;;;11.93;7.50;;;0.30;1.00;;;;;;4999995;28;20200;-61
2023/03/01 08:13:42;;;;;;;11.37;7.83;;;0.40;1.00;;;;;;5015639;28;20192;-60
2023/03/01 08:16:14;;;;;;;10.07;7.20;;;0.50;1.00;;;;;;5000939;28;20223;-59
2023/03/01 08:18:42;;;;;;;11.23;7.30;;;0.50;1.00;;;;;;4999646;28;20291;-60
2023/03/01 08:21:15;;;;;;;11.03;7.47;;;0.60;1.00;;;;;;5015998;28;20287;-60
2023/03/01 08:23:43;;;;;;;13.67;7.93;;;0.70;1.00;;;;;;5015466;28;20197;-59
2023/03/01 08:26:13;;;;;;;15.87;8.90;;;0.70;1.00;;;;;;5016659;28;20213;-58
2023/03/01 08:28:41;;;;;;;12.70;7.67;;;0.80;1.00;;;;;;5016511;28;20200;-59
2023/03/01 08:31:22;;;;;;;11.50;7.67;;;0.80;1.00;;;;;;5015083;28;20201;-61
2023/03/01 08:33:55;;;;;;;12.53;7.53;;;1.00;1.00;;;;;;5017604;28;20279;-60
2023/03/01 08:36:30;;;;;;;11.23;7.87;;;1.20;1.00;;;;;;4997266;28;20213;-61
2023/03/01 08:38:58;;;;;;;12.23;7.77;;;1.10;1.00;;;;;;5014422;28;20263;-59
2023/03/01 08:41:26;;;;;;;9.50;7.40;;;1.10;1.00;;;;;;5016471;28;20683;-59
2023/03/01 08:43:58;;;;;;;10.90;7.47;;;1.20;1.00;;;;;;5017929;28;20641;-61
2023/03/01 08:46:26;;;;;;;10.60;8.27;;;1.20;1.00;;;;;;4992552;28;20700;-59
2023/03/01 08:48:53;;;;;;;10.83;7.53;;;1.20;1.00;;;;;;5000657;28;20224;-60
2023/03/01 08:51:21;;;;;;;12.60;7.27;;;1.30;1.00;;;;;;4999802;28;20199;-59
2023/03/01 08:53:48;;;;;;;9.03;6.93;;;1.40;1.00;;;;;;5000032;28;20667;-59
2023/03/01 08:56:16;;;;;;;10.93;8.00;;;1.40;1.00;;;;;;5018625;28;20295;-60
2023/03/01 08:58:45;;;;;;;14.83;8.20;;;1.50;1.00;;;;;;4999989;28;20212;-60
2023/03/01 09:01:15;;;;;;;10.97;7.80;;;1.50;1.00;;;;;;4985247;28;20192;-58
2023/03/01 09:03:43;;;;;;;10.80;7.13;;;1.60;1.00;;;;;;4984616;28;20579;-58
2023/03/01 09:06:11;;;;;;;10.40;7.70;;;1.80;1.00;;;;;;5018262;28;20283;-60
2023/03/01 09:08:40;;;;;;;11.23;7.60;;;1.80;1.00;;;;;;5017342;28;20185;-61
2023/03/01 09:11:09;;;;;;;11.70;6.43;;;2.10;1.00;;;;;;4982234;28;20263;-61
2023/03/01 09:13:36;;;;;;;10.37;6.93;;;4.50;1.00;;;;;;4999033;28;20207;-59
2023/03/01 09:16:06;;;;;;;8.40;6.43;;;10.90;1.00;;;;;;5001639;28;20742;-59
2023/03/01 09:18:34;;;;;;;7.63;6.30;;;13.40;1.00;;;;;;5016957;28;20200;-60
2023/03/01 09:21:13;;;;;;;8.53;6.20;;;16.20;1.00;;;;;;5017728;28;20280;-61
2023/03/01 09:23:46;;;;;;;8.40;5.77;;;17.40;1.00;;;;;;5017285;28;20199;-60
2023/03/01 09:26:21;;;;;;;8.38;5.85;;;17.30;1.00;;;;;;4999146;28;20230;-62
2023/03/01 09:28:51;;;;;;;8.15;6.43;;;17.40;1.00;;;;;;5016820;28;20262;-60
2023/03/01 09:31:21;;;;;;;8.73;6.60;;;16.80;1.00;;;;;;4999076;28;21176;-61
2023/03/01 09:33:51;;;;;;;9.18;6.15;;;16.10;1.00;;;;;;4983179;28;20193;-60
2023/03/01 09:36:22;;;;;;;7.57;5.65;;;17.60;1.00;;;;;;5017606;28;20200;-61
2023/03/01 09:38:49;;;;;;;9.80;5.68;;;18.60;1.00;;;;;;5018891;28;20250;-60
2023/03/01 09:41:31;;;;;;;9.00;6.10;;;16.70;1.00;;;;;;5021717;28;20230;-60
2023/03/01 09:44:10;;;;;;;8.75;6.00;;;15.60;1.00;;;;;;5003953;28;20598;-60
2023/03/01 09:46:43;;;;;;;10.23;6.40;;;16.20;1.00;;;;;;5003747;28;20757;-59
2023/03/01 09:49:18;;;;;;;7.78;5.63;;;15.60;1.00;;;;;;5021489;28;20703;-59
2023/03/01 09:52:19;;;;;;;8.85;5.57;;;16.00;1.00;;;;;;5022232;28;20192;-60
2023/03/01 09:54:49;;;;;;;7.95;5.90;;;15.00;1.00;;;;;;4987752;28;20933;-59
2023/03/01 09:57:29;;;;;;;5.72;4.57;;;17.70;1.00;;;;;;5001006;28;20304;-60
2023/03/01 10:00:30;;;;;;;11.10;6.10;;;16.40;1.00;;;;;;5001299;28;20205;-61
2023/03/01 10:03:11;;;;;;;7.85;5.90;;;16.80;1.00;;;;;;5021344;28;20196;-59
2023/03/01 10:05:52;;;;;;;9.82;6.18;;;17.10;1.00;;;;;;5021157;28;20757;-59
2023/03/01 10:08:30;;;;;;;6.45;5.00;;;16.10;1.00;;;;;;5003479;28;20204;-59
2023/03/01 10:10:58;;;;;;;10.20;6.60;;;15.10;1.00;;;;;;5020384;28;20250;-59
2023/03/01 10:14:02;;;;;;;7.13;5.35;;;15.10;1.00;;;;;;5003528;28;20209;-59
2023/03/01 10:17:21;;;;;;;8.40;5.90;;;14.90;1.00;;;;;;4988234;28;20699;-61
2023/03/01 10:19:48;;;;;;;6.65;5.20;;;16.20;1.00;;;;;;4953810;28;20299;-60
2023/03/01 10:22:18;;;;;;;8.65;5.45;;;17.10;1.00;;;;;;5004033;28;20219;-61
2023/03/01 10:24:46;;;;;;;5.57;5.03;;;17.30;1.00;;;;;;5020181;28;20200;-62
2023/03/01 10:27:39;;;;;;;11.15;7.05;;;17.00;1.00;;;;;;5019924;28;20201;-58
2023/03/01 10:30:16;;;;;;;16.38;7.38;;;17.20;1.00;;;;;;5019256;28;20278;-62
2023/03/01 10:32:44;;;;;;;9.32;6.68;;;16.30;1.00;;;;;;5001966;28;20181;-59
2023/03/01 10:35:22;;;;;;;7.63;5.82;;;14.60;1.00;;;;;;5019567;28;20692;-60
2023/03/01 10:38:10;;;;;;;6.63;5.85;;;15.90;1.00;;;;;;5020312;28;20486;-60
2023/03/01 10:40:53;;;;;;;8.90;6.47;;;16.60;1.00;;;;;;5002823;28;20255;-59
2023/03/01 10:43:22;;;;;;;12.93;6.37;;;15.90;1.00;;;;;;4986146;28;20205;-59
2023/03/01 10:45:49;;;;;;;9.40;6.88;;;14.80;1.00;;;;;;4995293;28;20217;-61
2023/03/01 10:48:19;;;;;;;9.48;6.63;;;16.90;1.00;;;;;;5001231;28;20694;-60
2023/03/01 10:50:49;;;;;;;11.85;6.88;;;17.10;1.00;;;;;;5019509;28;20276;-60
2023/03/01 10:53:26;;;;;;;8.80;6.72;;;16.60;1.00;;;;;;5002008;28;20207;-60
2023/03/01 10:56:06;;;;;;;8.07;6.07;;;17.80;1.00;;;;;;5019536;28;20265;-61
2023/03/01 10:58:35;;;;;;;7.22;5.88;;;18.90;1.00;;;;;;5019247;28;20213;-60
2023/03/01 11:01:24;;;;;;;8.38;6.07;;;18.40;1.00;;;;;;4985399;28;20255;-60
2023/03/01 11:04:10;;;;;;;11.07;7.45;;;19.00;1.00;;;;;;5017350;28;20310;-61
2023/03/01 11:06:39;;;;;;;13.18;6.45;;;18.10;1.00;;;;;;5020122;28;20242;-60
2023/03/01 11:09:21;;;;;;;9.82;6.28;;;18.00;1.00;;;;;;5001617;28;20271;-60
2023/03/01 11:11:55;;;;;;;8.77;6.63;;;17.00;1.00;;;;;;5019124;28;20679;-60
2023/03/01 11:14:24;;;;;;;10.82;6.88;;;16.00;1.00;;;;;;5001843;28;20299;-59
2023/03/01 11:17:01;;;;;;;8.27;6.47;;;15.70;1.00;;;;;;4985794;28;20629;-62
2023/03/01 11:19:28;;;;;;;7.72;5.90;;;15.90;1.00;;;;;;5019085;28;20671;-61
2023/03/01 11:22:08;;;;;;;9.73;6.55;;;16.00;1.00;;;;;;5001441;28;20248;-60
2023/03/01 11:24:47;;;;;;;12.68;7.15;;;14.20;1.00;;;;;;5017992;28;20581;-62
2023/03/01 11:27:32;;;;;;;9.20;6.53;;;14.00;1.00;;;;;;5018219;28;20216;-59
2023/03/01 11:30:36;;;;;;;6.97;5.80;;;14.80;1.00;;;;;;5018482;28;20193;-59
2023/03/01 11:33:18;;;;;;;9.50;6.90;;;14.60;1.00;;;;;;5018392;28;20657;-59
2023/03/01 11:35:57;;;;;;;11.20;7.00;;;13.40;1.00;;;;;;5001333;28;20212;-59
2023/03/01 11:38:30;;;;;;;9.68;6.68;;;13.20;1.00;;;;;;5000025;28;20216;-61
2023/03/01 11:41:17;;;;;;;11.27;6.25;;;13.50;1.00;;;;;;5019460;28;20217;-61
2023/03/01 11:44:03;;;;;;;7.07;6.20;;;13.80;1.00;;;;;;5018351;28;20224;-62
2023/03/01 11:46:33;;;;;;;11.63;6.82;;;14.10;1.00;;;;;;5017278;28;20671;-61
2023/03/01 11:49:12;;;;;;;14.80;8.13;;;14.50;1.00;;;;;;4999362;28;20212;-60
2023/03/01 11:51:48;;;;;;;9.45;7.45;;;13.60;1.00;;;;;;4992727;28;20734;-62
2023/03/01 11:54:30;;;;;;;9.60;7.30;;;13.60;1.00;;;;;;4984695;28;20200;-61
2023/03/01 11:57:31;;;;;;;11.63;7.20;;;12.70;1.00;;;;;;5018004;28;20383;-62
2023/03/01 12:00:30;;;;;;;9.77;6.80;;;13.30;1.00;;;;;;5018182;28;20292;-62
2023/03/01 12:03:17;;;;;;;9.27;6.90;;;11.50;1.00;;;;;;5017129;28;20814;-59
2023/03/01 12:06:03;;;;;;;9.65;6.63;;;11.60;1.00;;;;;;5019233;28;20267;-66
2023/03/01 12:08:45;;;;;;;8.60;6.78;;;11.70;1.00;;;;;;4984706;28;20193;-66
2023/03/01 12:11:29;;;;;;;8.95;6.22;;;11.80;1.00;;;;;;4998404;28;20200;-64
2023/03/01 12:14:20;;;;;;;8.23;5.90;;;11.50;1.00;;;;;;5016203;28;20224;-65
2023/03/01 12:17:14;;;;;;;9.20;6.75;;;11.30;1.00;;;;;;5001741;28;20202;-64
2023/03/01 12:19:52;;;;;;;8.60;5.80;;;12.00;1.00;;;;;;5000507;28;20211;-66
2023/03/01 12:22:35;;;;;;;9.38;6.32;;;12.10;1.00;;;;;;5019075;28;20199;-66
2023/03/01 12:25:23;;;;;;;7.77;6.20;;;12.30;1.00;;;;;;5018481;28;20196;-65
2023/03/01 12:28:15;;;;;;;6.93;5.80;;;11.50;1.00;;;;;;5017755;28;20224;-65
2023/03/01 12:30:44;;;;;;;8.17;6.33;;;11.30;1.00;;;;;;5018216;28;20216;-65
2023/03/01 12:33:46;;;;;;;8.17;6.07;;;11.50;1.00;;;;;;5000365;28;20684;-64
2023/03/01 12:36:38;;;;;;;9.50;6.37;;;10.70;1.00;;;;;;5013090;28;20253;-66
2023/03/01 12:39:26;;;;;;;8.00;5.73;;;10.70;1.00;;;;;;5002268;28;20196;-68
2023/03/01 12:42:20;;;;;;;8.00;5.73;;;10.70;1.00;;;;;;5001062;28;20655;-66
2023/03/01 12:45:19;;;;;;;8.77;5.70;;;11.10;1.00;;;;;;5018866;28;20312;-65
2023/03/01 12:48:31;;;;;;;8.60;5.57;;;11.10;1.00;;;;;;4986891;28;20817;-66
2023/03/01 12:51:06;;;;;;;7.13;5.40;;;10.40;1.00;;;;;;5018824;28;20216;-65
2023/03/01 12:53:41;;;;;;;7.97;5.87;;;9.70;1.00;;;;;;5017605;28;20251;-64
2023/03/01 12:56:14;;;;;;;8.63;6.07;;;9.60;1.00;;;;;;5000065;28;20261;-65
2023/03/01 12:58:54;;;;;;;7.60;6.30;;;9.90;1.00;;;;;;4997240;28;20220;-66
2023/03/01 13:01:42;;;;;;;8.93;6.30;;;10.30;1.00;;;;;;5005344;28;20639;-64
2023/03/01 13:04:37;;;;;;;8.07;5.73;;;10.00;1.00;;;;;;4993393;28;20326;-65
2023/03/01 13:07:22;;;;;;;9.40;5.87;;;9.10;1.00;;;;;;4997315;28;20763;-68
2023/03/01 13:10:06;;;;;;;7.97;5.43;;;9.00;1.00;;;;;;5012527;28;20185;-66
2023/03/01 13:12:55;;;;;;;8.10;5.73;;;8.50;1.00;;;;;;5016272;28;20231;-65
2023/03/01 13:15:21;;;;;;;9.60;6.13;;;8.60;1.00;;;;;;4982061;28;20256;-65
2023/03/01 13:18:23;;;;;;;7.40;5.40;;;8.60;1.00;;;;;;4982093;28;20535;-65